createdAt,value
2023-05-11T00:00:59.018Z,12.60
2023-05-11T00:01:59.007Z,11.90
2023-05-11T00:02:59.039Z,12.70
2023-05-11T00:03:59.059Z,14.00
2023-05-11T00:04:58.945Z,15.30
2023-05-11T00:05:58.932Z,14.20
2023-05-11T00:06:58.923Z,16.40
2023-05-11T00:07:58.952Z,14.80
2023-05-11T00:08:58.898Z,11.80
2023-05-11T00:09:58.885Z,12.10
2023-05-11T00:10:58.871Z,15.30
2023-05-11T00:11:58.861Z,9.40
2023-05-11T00:12:58.869Z,18.50
2023-05-11T00:13:58.846Z,19.60
2023-05-11T00:14:58.823Z,15.80
2023-05-11T00:15:58.886Z,15.50
2023-05-11T00:16:58.826Z,19.60
2023-05-11T00:17:58.857Z,16.40
2023-05-11T00:18:58.984Z,13.70
2023-05-11T00:19:58.781Z,18.50
2023-05-11T00:20:58.765Z,12.40
2023-05-11T00:21:58.795Z,18.00
2023-05-11T00:22:58.748Z,11.30
2023-05-11T00:23:58.738Z,16.20
2023-05-11T00:24:58.723Z,13.30
2023-05-11T00:25:58.743Z,14.50
2023-05-11T00:26:58.720Z,13.00
2023-05-11T00:27:58.718Z,17.10
2023-05-11T00:28:58.681Z,15.20
2023-05-11T00:29:58.672Z,17.70
2023-05-11T00:30:58.790Z,17.30
2023-05-11T00:31:58.706Z,13.40
2023-05-11T00:32:58.683Z,16.90
2023-05-11T00:33:58.632Z,17.90
2023-05-11T00:34:58.635Z,13.40
2023-05-11T00:35:58.646Z,17.90
2023-05-11T00:36:58.605Z,15.30
2023-05-11T00:37:58.585Z,8.50
2023-05-11T00:38:58.579Z,12.00
2023-05-11T00:39:58.589Z,13.80
2023-05-11T00:40:58.576Z,15.30
2023-05-11T00:41:58.552Z,15.30
2023-05-11T00:42:58.533Z,13.50
2023-05-11T00:43:58.529Z,15.50
2023-05-11T00:44:58.538Z,13.60
2023-05-11T00:45:58.509Z,15.00
2023-05-11T00:46:58.525Z,11.00
2023-05-11T00:47:58.498Z,15.10
2023-05-11T00:48:58.461Z,11.80
2023-05-11T00:49:58.491Z,16.00
2023-05-11T00:50:58.453Z,15.30
2023-05-11T00:51:58.442Z,16.70
2023-05-11T00:52:58.433Z,14.10
2023-05-11T00:53:58.472Z,9.20
2023-05-11T00:54:58.436Z,15.50
2023-05-11T00:55:58.396Z,14.00
2023-05-11T00:56:58.394Z,12.30
2023-05-11T00:57:58.382Z,16.80
2023-05-11T00:58:58.391Z,10.80
2023-05-11T00:59:58.366Z,13.70
2023-05-11T01:00:58.362Z,14.30
2023-05-11T01:01:58.393Z,13.50
2023-05-11T01:02:58.411Z,18.30
2023-05-11T01:03:58.341Z,12.00
2023-05-11T01:04:58.306Z,10.50
2023-05-11T01:05:58.313Z,16.80
2023-05-11T01:06:58.280Z,12.60
2023-05-11T01:07:58.299Z,12.20
2023-05-11T01:08:58.291Z,19.20
2023-05-11T01:09:58.282Z,12.60
2023-05-11T01:10:58.305Z,14.90
2023-05-11T01:11:58.237Z,19.70
2023-05-11T01:12:58.238Z,14.00
2023-05-11T01:13:58.222Z,18.60
2023-05-11T01:14:58.213Z,14.30
2023-05-11T01:15:58.200Z,17.90
2023-05-11T01:16:58.242Z,13.10
2023-05-11T01:17:58.281Z,15.00
2023-05-11T01:18:58.237Z,20.20
2023-05-11T01:19:58.156Z,15.70
2023-05-11T01:20:58.153Z,14.30
2023-05-11T01:21:58.149Z,22.30
2023-05-11T01:22:58.150Z,21.10
2023-05-11T01:23:58.122Z,12.00
2023-05-11T01:24:58.097Z,12.80
2023-05-11T01:25:58.090Z,16.40
2023-05-11T01:26:58.095Z,24.00
2023-05-11T01:27:58.085Z,18.70
2023-05-11T01:28:58.055Z,11.70
2023-05-11T01:29:58.052Z,17.20
2023-05-11T01:30:58.051Z,15.60
2023-05-11T01:31:58.126Z,13.00
2023-05-11T01:32:58.108Z,22.90
2023-05-11T01:33:58.012Z,17.40
2023-05-11T01:34:57.993Z,15.90
2023-05-11T01:35:58.005Z,15.40
2023-05-11T01:36:57.995Z,23.00
2023-05-11T01:37:57.969Z,21.10
2023-05-11T01:38:57.955Z,19.40
2023-05-11T01:39:57.966Z,20.30
2023-05-11T01:40:57.952Z,18.60
2023-05-11T01:41:57.929Z,20.10
2023-05-11T01:42:57.920Z,20.90
2023-05-11T01:43:57.909Z,21.60
2023-05-11T01:44:57.898Z,20.50
2023-05-11T01:45:57.945Z,20.80
2023-05-11T01:46:57.874Z,19.80
2023-05-11T01:47:57.943Z,27.60
2023-05-11T01:48:57.849Z,25.60
2023-05-11T01:49:57.867Z,20.70
2023-05-11T01:50:57.842Z,24.10
2023-05-11T01:51:57.812Z,25.20
2023-05-11T01:52:57.815Z,19.10
2023-05-11T01:53:57.796Z,27.80
2023-05-11T01:54:57.815Z,20.00
2023-05-11T01:55:57.781Z,23.30
2023-05-11T01:56:57.773Z,22.80
2023-05-11T01:57:57.755Z,29.10
2023-05-11T01:58:57.758Z,26.50
2023-05-11T01:59:57.755Z,24.50
2023-05-11T02:00:57.726Z,27.00
2023-05-11T02:01:57.815Z,31.30
2023-05-11T02:02:57.806Z,27.10
2023-05-11T02:03:57.715Z,24.00
2023-05-11T02:04:57.696Z,26.60
2023-05-11T02:05:57.687Z,21.50
2023-05-11T02:06:57.675Z,19.10
2023-05-11T02:07:57.657Z,27.40
2023-05-11T02:08:57.663Z,23.40
2023-05-11T02:09:57.633Z,27.20
2023-05-11T02:10:57.616Z,30.50
2023-05-11T02:11:57.623Z,26.40
2023-05-11T02:12:57.642Z,22.40
2023-05-11T02:13:57.607Z,23.50
2023-05-11T02:14:57.600Z,25.70
2023-05-11T02:15:57.662Z,27.60
2023-05-11T02:16:57.564Z,26.50
2023-05-11T02:17:57.631Z,28.30
2023-05-11T02:18:57.569Z,27.40
2023-05-11T02:19:57.555Z,25.40
2023-05-11T02:20:57.525Z,27.00
2023-05-11T02:21:57.518Z,25.00
2023-05-11T02:22:57.518Z,30.70
2023-05-11T02:23:57.496Z,24.90
2023-05-11T02:24:57.470Z,27.80
2023-05-11T02:25:57.481Z,31.70
2023-05-11T02:26:57.453Z,32.30
2023-05-11T02:27:57.469Z,34.40
2023-05-11T02:28:57.432Z,27.70
2023-05-11T02:29:57.423Z,30.60
2023-05-11T02:30:57.423Z,25.90
2023-05-11T02:31:57.434Z,30.80
2023-05-11T02:32:57.427Z,29.70
2023-05-11T02:33:57.398Z,29.90
2023-05-11T02:34:57.380Z,24.20
2023-05-11T02:35:57.395Z,26.90
2023-05-11T02:36:57.371Z,31.30
2023-05-11T02:37:57.343Z,28.50
2023-05-11T02:38:57.326Z,25.90
2023-05-11T02:39:57.325Z,28.20
2023-05-11T02:40:57.309Z,30.30
2023-05-11T02:41:57.315Z,27.10
2023-05-11T02:42:57.287Z,21.80
2023-05-11T02:43:57.278Z,24.20
2023-05-11T02:44:57.274Z,22.30
2023-05-11T02:45:57.278Z,30.20
2023-05-11T02:46:57.315Z,22.60
2023-05-11T02:47:57.295Z,24.00
2023-05-11T02:48:57.238Z,27.80
2023-05-11T02:49:57.230Z,26.70
2023-05-11T02:50:57.237Z,24.10
2023-05-11T02:51:57.192Z,29.20
2023-05-11T02:52:57.188Z,25.80
2023-05-11T02:53:57.180Z,26.50
2023-05-11T02:54:57.162Z,27.40
2023-05-11T02:55:57.172Z,27.90
2023-05-11T02:56:57.168Z,32.50
2023-05-11T02:57:57.155Z,24.50
2023-05-11T02:58:57.128Z,29.30
2023-05-11T02:59:57.145Z,26.70
2023-05-11T03:00:57.206Z,28.10
2023-05-11T03:01:57.232Z,24.80
2023-05-11T03:02:57.144Z,24.20
2023-05-11T03:03:57.095Z,28.60
2023-05-11T03:04:57.097Z,31.00
2023-05-11T03:05:57.064Z,27.60
2023-05-11T03:06:57.057Z,27.90
2023-05-11T03:07:57.027Z,28.30
2023-05-11T03:08:57.019Z,30.60
2023-05-11T03:09:57.029Z,25.80
2023-05-11T03:10:56.999Z,29.50
2023-05-11T03:11:56.999Z,26.00
2023-05-11T03:12:56.982Z,27.70
2023-05-11T03:13:56.988Z,31.00
2023-05-11T03:14:56.973Z,36.70
2023-05-11T03:15:56.940Z,26.40
2023-05-11T03:16:57.007Z,29.20
2023-05-11T03:17:56.942Z,33.80
2023-05-11T03:18:56.990Z,28.40
2023-05-11T03:19:56.902Z,32.00
2023-05-11T03:20:56.896Z,29.60
2023-05-11T03:21:56.883Z,30.00
2023-05-11T03:22:56.875Z,28.00
2023-05-11T03:23:56.885Z,30.30
2023-05-11T03:24:56.856Z,25.70
2023-05-11T03:25:56.851Z,24.90
2023-05-11T03:26:56.835Z,32.90
2023-05-11T03:27:56.840Z,26.00
2023-05-11T03:28:56.828Z,25.60
2023-05-11T03:29:56.798Z,26.40
2023-05-11T03:30:56.809Z,25.60
2023-05-11T03:31:56.794Z,23.40
2023-05-11T03:32:56.897Z,23.80
2023-05-11T03:33:56.768Z,19.20
2023-05-11T03:34:56.756Z,22.00
2023-05-11T03:35:56.759Z,26.30
2023-05-11T03:36:56.738Z,18.60
2023-05-11T03:37:56.733Z,19.60
2023-05-11T03:38:56.713Z,27.40
2023-05-11T03:39:56.706Z,19.70
2023-05-11T03:40:56.698Z,21.00
2023-05-11T03:41:56.714Z,17.60
2023-05-11T03:42:56.684Z,20.70
2023-05-11T03:43:56.656Z,26.70
2023-05-11T03:44:56.656Z,22.50
2023-05-11T03:45:56.680Z,25.40
2023-05-11T03:46:56.649Z,27.30
2023-05-11T03:47:56.646Z,28.90
2023-05-11T03:48:56.617Z,30.00
2023-05-11T03:49:56.605Z,33.20
2023-05-11T03:50:56.593Z,35.50
2023-05-11T03:51:56.591Z,40.10
2023-05-11T03:52:56.575Z,30.90
2023-05-11T03:53:56.557Z,37.00
2023-05-11T03:54:56.547Z,34.40
2023-05-11T03:55:56.546Z,38.00
2023-05-11T03:56:56.499Z,35.30
2023-05-11T03:57:56.460Z,41.70
2023-05-11T03:58:56.459Z,39.40
2023-05-11T03:59:56.450Z,37.40
2023-05-11T04:00:56.445Z,36.10
2023-05-11T04:01:56.415Z,37.00
2023-05-11T04:02:56.546Z,38.40
2023-05-11T04:03:56.684Z,35.30
2023-05-11T04:04:56.444Z,37.20
2023-05-11T04:05:56.454Z,39.40
2023-05-11T04:06:56.426Z,37.40
2023-05-11T04:07:56.405Z,40.10
2023-05-11T04:08:56.455Z,36.80
2023-05-11T04:09:56.404Z,42.10
2023-05-11T04:10:56.394Z,35.00
2023-05-11T04:11:56.373Z,35.30
2023-05-11T04:12:56.367Z,39.30
2023-05-11T04:13:56.346Z,39.20
2023-05-11T04:14:56.366Z,36.30
2023-05-11T04:15:56.417Z,35.40
2023-05-11T04:16:56.326Z,35.50
2023-05-11T04:17:56.365Z,47.20
2023-05-11T04:18:56.347Z,41.60
2023-05-11T04:19:56.321Z,42.90
2023-05-11T04:20:56.247Z,38.30
2023-05-11T04:21:56.201Z,39.30
2023-05-11T04:22:56.198Z,39.10
2023-05-11T04:23:56.263Z,42.20
2023-05-11T04:24:56.260Z,36.30
2023-05-11T04:25:56.232Z,39.00
2023-05-11T04:26:56.217Z,42.70
2023-05-11T04:27:56.208Z,35.30
2023-05-11T04:28:56.935Z,37.90
2023-05-11T04:29:56.188Z,34.20
2023-05-11T04:30:56.172Z,31.80
2023-05-11T04:31:56.227Z,36.00
2023-05-11T04:32:56.116Z,31.20
2023-05-11T04:33:56.098Z,26.80
2023-05-11T04:34:56.084Z,29.00
2023-05-11T04:35:56.062Z,27.40
2023-05-11T04:36:56.059Z,26.30
2023-05-11T04:37:56.057Z,26.50
2023-05-11T04:38:56.062Z,26.10
2023-05-11T04:39:56.106Z,26.40
2023-05-11T04:40:56.034Z,28.40
2023-05-11T04:41:56.003Z,28.30
2023-05-11T04:42:56.012Z,26.20
2023-05-11T04:43:55.986Z,22.70
2023-05-11T04:44:55.978Z,24.80
2023-05-11T04:45:55.952Z,23.30
2023-05-11T04:46:56.038Z,23.80
2023-05-11T04:47:55.987Z,24.30
2023-05-11T04:48:55.941Z,24.10
2023-05-11T04:49:55.920Z,21.20
2023-05-11T04:50:55.915Z,19.30
2023-05-11T04:51:55.928Z,24.70
2023-05-11T04:52:55.910Z,24.00
2023-05-11T04:53:55.886Z,21.40
2023-05-11T04:54:55.870Z,21.30
2023-05-11T04:55:55.897Z,16.60
2023-05-11T04:56:55.865Z,21.50
2023-05-11T04:57:55.840Z,18.70
2023-05-11T04:58:55.820Z,17.50
2023-05-11T04:59:55.872Z,22.60
2023-05-11T05:00:55.856Z,18.40
2023-05-11T05:01:55.816Z,25.00
2023-05-11T05:02:55.804Z,15.20
2023-05-11T05:03:55.781Z,17.90
2023-05-11T05:04:55.777Z,18.50
2023-05-11T05:05:55.767Z,16.60
2023-05-11T05:06:55.770Z,18.30
2023-05-11T05:07:55.740Z,20.10
2023-05-11T05:08:55.726Z,23.10
2023-05-11T05:09:55.724Z,20.90
2023-05-11T05:10:55.771Z,15.70
2023-05-11T05:11:55.696Z,18.40
2023-05-11T05:12:55.693Z,21.90
2023-05-11T05:13:55.669Z,15.90
2023-05-11T05:14:55.662Z,15.10
2023-05-11T05:15:55.668Z,16.40
2023-05-11T05:16:55.702Z,16.60
2023-05-11T05:17:55.684Z,15.30
2023-05-11T05:18:55.646Z,18.90
2023-05-11T05:19:55.627Z,20.30
2023-05-11T05:20:55.624Z,14.40
2023-05-11T05:21:55.587Z,15.50
2023-05-11T05:22:55.588Z,13.80
2023-05-11T05:23:55.576Z,17.50
2023-05-11T05:24:55.579Z,17.90
2023-05-11T05:25:55.546Z,14.60
2023-05-11T05:26:55.541Z,26.30
2023-05-11T05:27:55.529Z,15.60
2023-05-11T05:28:55.527Z,14.70
2023-05-11T05:29:55.524Z,16.40
2023-05-11T05:30:55.521Z,18.80
2023-05-11T05:31:55.484Z,18.80
2023-05-11T05:32:55.522Z,17.70
2023-05-11T05:33:55.487Z,14.10
2023-05-11T05:34:55.481Z,23.50
2023-05-11T05:35:55.441Z,18.50
2023-05-11T05:36:55.439Z,16.20
2023-05-11T05:37:55.422Z,19.70
2023-05-11T05:38:55.442Z,19.50
2023-05-11T05:39:55.419Z,16.60
2023-05-11T05:40:55.395Z,16.60
2023-05-11T05:41:55.384Z,20.40
2023-05-11T05:42:55.378Z,17.30
2023-05-11T05:43:55.380Z,26.10
2023-05-11T05:44:55.368Z,17.60
2023-05-11T05:45:55.384Z,13.70
2023-05-11T05:46:55.344Z,15.70
2023-05-11T05:47:55.361Z,20.80
2023-05-11T05:48:55.343Z,20.60
2023-05-11T05:49:55.321Z,17.50
2023-05-11T05:50:55.298Z,16.30
2023-05-11T05:51:55.286Z,15.30
2023-05-11T05:52:55.307Z,22.70
2023-05-11T05:53:55.259Z,14.30
2023-05-11T05:54:55.254Z,17.60
2023-05-11T05:55:55.236Z,14.80
2023-05-11T05:56:55.236Z,23.90
2023-05-11T05:57:55.230Z,16.00
2023-05-11T05:58:55.213Z,24.70
2023-05-11T05:59:55.201Z,20.10
2023-05-11T06:00:55.192Z,16.80
2023-05-11T06:01:55.178Z,17.30
2023-05-11T06:02:55.236Z,25.40
2023-05-11T06:03:55.302Z,27.10
2023-05-11T06:04:55.215Z,21.60
2023-05-11T06:05:55.134Z,22.40
2023-05-11T06:06:55.146Z,22.20
2023-05-11T06:08:09.199Z,22.60
2023-05-11T06:08:56.100Z,21.00
2023-05-11T06:09:55.090Z,21.40
2023-05-11T06:10:55.090Z,24.20
2023-05-11T06:11:55.083Z,21.10
2023-05-11T06:12:55.066Z,28.40
2023-05-11T06:13:55.052Z,27.20
2023-05-11T06:14:55.043Z,28.40
2023-05-11T06:15:55.055Z,30.00
2023-05-11T06:16:55.044Z,24.80
2023-05-11T06:17:55.032Z,21.90
2023-05-11T06:18:55.066Z,27.00
2023-05-11T06:19:54.985Z,27.80
2023-05-11T06:20:54.996Z,27.80
2023-05-11T06:21:54.973Z,24.60
2023-05-11T06:22:54.966Z,29.20
2023-05-11T06:23:54.943Z,21.80
2023-05-11T06:24:54.942Z,28.30
2023-05-11T06:25:54.949Z,29.30
2023-05-11T06:26:54.919Z,30.20
2023-05-11T06:27:54.928Z,36.60
2023-05-11T06:28:54.901Z,31.00
2023-05-11T06:29:54.886Z,32.10
2023-05-11T06:30:54.897Z,31.20
2023-05-11T06:31:54.945Z,33.60
2023-05-11T06:32:54.936Z,28.70
2023-05-11T06:33:54.852Z,29.00
2023-05-11T06:34:54.851Z,30.30
2023-05-11T06:35:54.840Z,27.80
2023-05-11T06:36:54.821Z,26.60
2023-05-11T06:37:54.810Z,26.10
2023-05-11T06:38:54.801Z,28.20
2023-05-11T06:39:54.812Z,30.80
2023-05-11T06:40:54.770Z,26.30
2023-05-11T06:41:56.648Z,29.70
2023-05-11T06:42:54.762Z,30.70
2023-05-11T06:43:54.745Z,27.30
2023-05-11T06:44:54.785Z,27.50
2023-05-11T06:45:54.759Z,28.30
2023-05-11T06:46:54.716Z,27.20
2023-05-11T06:47:54.705Z,29.80
2023-05-11T06:48:54.712Z,34.50
2023-05-11T06:49:54.694Z,27.90
2023-05-11T06:50:54.685Z,28.90
2023-05-11T06:51:54.664Z,24.70
2023-05-11T06:52:54.666Z,24.10
2023-05-11T06:53:54.663Z,21.60
2023-05-11T06:54:54.640Z,25.10
2023-05-11T06:55:54.616Z,26.20
2023-05-11T06:56:54.613Z,26.30
2023-05-11T06:57:54.599Z,24.40
2023-05-11T06:58:54.610Z,26.20
2023-05-11T06:59:54.576Z,23.50
2023-05-11T07:00:54.596Z,23.50
2023-05-11T07:01:54.561Z,23.50
2023-05-11T07:02:54.584Z,23.10
2023-05-11T07:03:54.967Z,25.90
2023-05-11T07:04:54.566Z,25.90
2023-05-11T07:05:54.513Z,25.10
2023-05-11T07:06:54.509Z,26.90
2023-05-11T07:07:54.509Z,27.40
2023-05-11T07:08:54.486Z,28.20
2023-05-11T07:09:54.475Z,24.00
2023-05-11T07:10:54.459Z,22.00
2023-05-11T07:11:54.453Z,31.30
2023-05-11T07:12:54.464Z,35.60
2023-05-11T07:13:54.429Z,43.90
2023-05-11T07:14:54.440Z,27.50
2023-05-11T07:15:56.635Z,29.10
2023-05-11T07:16:54.531Z,25.30
2023-05-11T07:17:54.474Z,24.60
2023-05-11T07:18:54.416Z,23.20
2023-05-11T07:19:54.371Z,26.30
2023-05-11T07:20:54.363Z,23.30
2023-05-11T07:21:54.369Z,23.20
2023-05-11T07:22:54.335Z,22.40
2023-05-11T07:23:54.338Z,23.00
2023-05-11T07:24:54.317Z,27.30
2023-05-11T07:25:54.312Z,22.30
2023-05-11T07:26:54.307Z,24.20
2023-05-11T07:27:54.294Z,21.50
2023-05-11T07:28:54.278Z,20.80
2023-05-11T07:29:54.274Z,21.70
2023-05-11T07:30:54.265Z,21.80
2023-05-11T07:31:54.275Z,19.30
2023-05-11T07:32:54.383Z,20.30
2023-05-11T07:33:54.226Z,22.30
2023-05-11T07:34:54.227Z,21.20
2023-05-11T07:35:54.224Z,18.60
2023-05-11T07:36:54.193Z,21.30
2023-05-11T07:37:54.192Z,21.10
2023-05-11T07:38:54.166Z,21.40
2023-05-11T07:39:54.198Z,20.20
2023-05-11T07:40:54.166Z,21.10
2023-05-11T07:41:54.152Z,18.60
2023-05-11T07:42:54.150Z,16.90
2023-05-11T07:43:54.136Z,20.30
2023-05-11T07:44:54.121Z,18.40
2023-05-11T07:45:54.134Z,21.30
2023-05-11T07:46:54.093Z,20.60
2023-05-11T07:47:54.091Z,19.20
2023-05-11T07:49:03.574Z,21.60
2023-05-11T07:49:55.083Z,19.30
2023-05-11T07:50:54.046Z,18.60
2023-05-11T07:51:54.042Z,18.60
2023-05-11T07:52:54.039Z,19.00
2023-05-11T07:53:54.026Z,15.30
2023-05-11T07:54:54.025Z,19.50
2023-05-11T07:55:54.003Z,21.80
2023-05-11T07:56:53.993Z,18.40
2023-05-11T07:57:53.976Z,19.10
2023-05-11T07:58:54.029Z,17.00
2023-05-11T07:59:53.988Z,18.80
2023-05-11T08:00:53.971Z,16.90
2023-05-11T08:01:53.998Z,16.10
2023-05-11T08:02:54.034Z,18.90
2023-05-11T08:03:53.936Z,15.50
2023-05-11T08:04:53.904Z,19.20
2023-05-11T08:05:54.004Z,16.00
2023-05-11T08:06:53.912Z,20.00
2023-05-11T08:07:53.886Z,15.40
2023-05-11T08:08:53.919Z,18.40
2023-05-11T08:09:53.863Z,18.30
2023-05-11T08:10:53.853Z,15.20
2023-05-11T08:11:53.839Z,17.90
2023-05-11T08:12:53.860Z,17.70
2023-05-11T08:13:53.852Z,17.20
2023-05-11T08:14:53.819Z,20.10
2023-05-11T08:15:53.815Z,15.50
2023-05-11T08:16:53.807Z,12.80
2023-05-11T08:17:53.904Z,15.10
2023-05-11T08:18:53.865Z,15.30
2023-05-11T08:19:53.765Z,19.00
2023-05-11T08:20:53.766Z,13.90
2023-05-11T08:21:53.749Z,16.60
2023-05-11T08:22:53.754Z,14.30
2023-05-11T08:23:53.719Z,13.90
2023-05-11T08:24:53.708Z,15.40
2023-05-11T08:25:53.708Z,13.50
2023-05-11T08:26:53.711Z,15.10
2023-05-11T08:27:53.709Z,14.70
2023-05-11T08:28:53.666Z,17.30
2023-05-11T08:29:53.659Z,16.50
2023-05-11T08:30:53.656Z,20.00
2023-05-11T08:31:53.781Z,18.90
2023-05-11T08:32:58.460Z,15.80
2023-05-11T08:33:54.762Z,20.30
2023-05-11T08:34:53.771Z,18.00
2023-05-11T08:35:53.609Z,17.30
2023-05-11T08:36:53.602Z,19.20
2023-05-11T08:37:53.581Z,18.40
2023-05-11T08:38:57.087Z,18.70
2023-05-11T08:39:54.569Z,20.30
2023-05-11T08:40:53.566Z,18.20
2023-05-11T08:41:53.570Z,16.40
2023-05-11T08:42:53.536Z,20.20
2023-05-11T08:43:53.525Z,19.10
2023-05-11T08:44:53.525Z,18.30
2023-05-11T08:45:53.545Z,18.60
2023-05-11T08:47:03.650Z,17.40
2023-05-11T08:47:54.492Z,19.50
2023-05-11T08:48:53.470Z,18.00
2023-05-11T08:49:53.552Z,17.10
2023-05-11T08:50:53.466Z,18.80
2023-05-11T08:51:53.436Z,19.60
2023-05-11T08:52:53.437Z,16.10
2023-05-11T08:53:53.418Z,17.90
2023-05-11T08:54:53.435Z,22.20
2023-05-11T08:55:53.416Z,19.20
2023-05-11T08:56:53.388Z,19.80
2023-05-11T08:57:53.392Z,18.20
2023-05-11T08:58:55.950Z,17.80
2023-05-11T08:59:53.386Z,22.60
2023-05-11T09:00:53.522Z,16.30
2023-05-11T09:01:53.362Z,21.20
2023-05-11T09:02:53.383Z,18.10
2023-05-11T09:03:53.314Z,18.10
2023-05-11T09:04:53.328Z,16.20
2023-05-11T09:05:53.328Z,17.80
2023-05-11T09:06:53.292Z,15.90
2023-05-11T09:07:53.313Z,13.90
2023-05-11T09:08:53.261Z,17.90
2023-05-11T09:09:53.277Z,16.60
2023-05-11T09:10:53.243Z,16.20
2023-05-11T09:11:53.235Z,13.40
2023-05-11T09:12:53.220Z,17.90
2023-05-11T09:13:53.233Z,14.60
2023-05-11T09:14:53.219Z,20.20
2023-05-11T09:15:53.215Z,16.90
2023-05-11T09:16:53.198Z,18.80
2023-05-11T09:17:53.289Z,15.30
2023-05-11T09:18:53.201Z,13.80
2023-05-11T09:19:53.160Z,20.60
2023-05-11T09:20:53.147Z,16.50
2023-05-11T09:21:53.131Z,17.90
2023-05-11T09:22:53.118Z,14.00
2023-05-11T09:23:53.130Z,12.90
2023-05-11T09:24:53.097Z,14.10
2023-05-11T09:25:53.096Z,13.30
2023-05-11T09:26:53.079Z,12.80
2023-05-11T09:27:53.099Z,13.00
2023-05-11T09:29:02.379Z,12.90
2023-05-11T09:29:54.059Z,13.20
2023-05-11T09:30:53.033Z,12.70
2023-05-11T09:31:53.153Z,14.40
2023-05-11T09:32:53.148Z,12.20
2023-05-11T09:33:53.015Z,14.40
2023-05-11T09:34:53.009Z,13.60
2023-05-11T09:35:53.025Z,13.40
2023-05-11T09:36:52.999Z,11.90
2023-05-11T09:37:52.986Z,12.30
2023-05-11T09:38:57.342Z,13.30
2023-05-11T09:40:25.222Z,14.70
2023-05-11T09:40:53.942Z,11.20
2023-05-11T09:41:52.956Z,17.10
2023-05-11T09:42:52.932Z,12.80
2023-05-11T09:43:52.913Z,10.50
2023-05-11T09:44:52.894Z,14.50
2023-05-11T09:45:52.941Z,13.80
2023-05-11T09:46:52.993Z,15.20
2023-05-11T09:47:52.923Z,14.20
2023-05-11T09:48:52.858Z,13.00
2023-05-11T09:49:52.849Z,12.90
2023-05-11T09:50:52.846Z,13.00
2023-05-11T09:51:52.845Z,13.90
2023-05-11T09:52:52.822Z,14.10
2023-05-11T09:53:52.806Z,9.20
2023-05-11T09:54:52.797Z,13.00
2023-05-11T09:55:52.806Z,12.30
2023-05-11T09:56:52.815Z,13.70
2023-05-11T09:57:52.767Z,12.20
2023-05-11T09:58:52.759Z,10.20
2023-05-11T09:59:52.749Z,9.50
2023-05-11T10:00:52.758Z,10.20
2023-05-11T10:01:52.790Z,13.80
2023-05-11T10:02:52.734Z,12.20
2023-05-11T10:03:52.906Z,9.00
2023-05-11T10:04:52.688Z,11.30
2023-05-11T10:05:52.700Z,10.20
2023-05-11T10:06:52.687Z,11.90
2023-05-11T10:07:52.662Z,13.60
2023-05-11T10:08:52.654Z,10.60
2023-05-11T10:09:52.663Z,12.40
2023-05-11T10:10:52.657Z,13.60
2023-05-11T10:11:52.631Z,8.20
2023-05-11T10:12:52.597Z,11.00
2023-05-11T10:13:52.601Z,10.70
2023-05-11T10:14:52.601Z,11.00
2023-05-11T10:15:52.600Z,9.40
2023-05-11T10:16:52.559Z,7.60
2023-05-11T10:17:52.616Z,8.40
2023-05-11T10:18:52.609Z,11.00
2023-05-11T10:19:52.547Z,9.00
2023-05-11T10:20:52.518Z,12.20
2023-05-11T10:21:52.583Z,11.20
2023-05-11T10:22:52.503Z,12.00
2023-05-11T10:23:52.505Z,9.50
2023-05-11T10:24:52.507Z,6.80
2023-05-11T10:25:52.472Z,7.70
2023-05-11T10:26:52.454Z,13.70
2023-05-11T10:27:52.470Z,6.10
2023-05-11T10:28:52.462Z,9.10
2023-05-11T10:29:52.432Z,8.90
2023-05-11T10:30:52.410Z,6.80
2023-05-11T10:31:52.447Z,7.00
2023-05-11T10:32:52.414Z,7.00
2023-05-11T10:33:52.408Z,8.30
2023-05-11T10:34:52.368Z,8.40
2023-05-11T10:35:54.159Z,10.90
2023-05-11T10:36:52.348Z,7.10
2023-05-11T10:37:52.363Z,10.50
2023-05-11T10:38:52.361Z,11.80
2023-05-11T10:39:52.371Z,7.70
2023-05-11T10:40:52.317Z,8.80
2023-05-11T10:41:52.311Z,7.10
2023-05-11T10:42:52.311Z,7.10
2023-05-11T10:43:52.301Z,7.60
2023-05-11T10:44:52.267Z,9.10
2023-05-11T10:45:52.324Z,8.80
2023-05-11T10:46:52.249Z,8.40
2023-05-11T10:47:52.333Z,9.40
2023-05-11T10:48:52.239Z,6.90
2023-05-11T10:49:52.254Z,8.20
2023-05-11T10:50:52.201Z,6.60
2023-05-11T10:51:52.194Z,7.70
2023-05-11T10:52:52.211Z,7.00
2023-05-11T10:53:52.197Z,6.60
2023-05-11T10:54:52.157Z,6.60
2023-05-11T10:55:52.166Z,7.10
2023-05-11T10:56:52.158Z,6.20
2023-05-11T10:57:52.151Z,5.00
2023-05-11T10:58:52.119Z,6.50
2023-05-11T10:59:52.110Z,7.80
2023-05-11T11:00:52.179Z,7.80
2023-05-11T11:01:52.290Z,7.30
2023-05-11T11:02:52.098Z,9.60
2023-05-11T11:03:52.072Z,8.90
2023-05-11T11:04:52.073Z,6.10
2023-05-11T11:05:52.138Z,8.40
2023-05-11T11:06:52.058Z,5.90
2023-05-11T11:07:52.033Z,8.30
2023-05-11T11:08:52.022Z,8.40
2023-05-11T11:09:52.075Z,9.70
2023-05-11T11:10:52.032Z,9.80
2023-05-11T11:11:52.016Z,7.60
2023-05-11T11:12:51.976Z,5.70
2023-05-11T11:13:51.978Z,5.10
2023-05-11T11:14:51.974Z,6.70
2023-05-11T11:15:51.995Z,7.70
2023-05-11T11:16:51.993Z,5.90
2023-05-11T11:17:51.969Z,7.20
2023-05-11T11:18:51.945Z,7.00
2023-05-11T11:19:51.924Z,5.80
2023-05-11T11:20:51.925Z,8.90
2023-05-11T11:21:51.883Z,3.70
2023-05-11T11:22:51.888Z,4.80
2023-05-11T11:23:51.864Z,4.80
2023-05-11T11:24:51.879Z,5.10
2023-05-11T11:25:51.843Z,5.80
2023-05-11T11:26:51.846Z,6.80
2023-05-11T11:27:51.833Z,7.10
2023-05-11T11:28:51.824Z,6.20
2023-05-11T11:29:51.819Z,6.80
2023-05-11T11:30:51.866Z,7.00
2023-05-11T11:31:51.785Z,8.70
2023-05-11T11:32:51.909Z,6.70
2023-05-11T11:33:51.807Z,6.70
2023-05-11T11:34:51.774Z,8.10
2023-05-11T11:35:51.748Z,9.10
2023-05-11T11:36:51.734Z,5.30
2023-05-11T11:37:51.716Z,9.00
2023-05-11T11:38:51.729Z,5.40
2023-05-11T11:39:51.697Z,8.10
2023-05-11T11:40:52.533Z,5.70
2023-05-11T11:41:51.721Z,6.20
2023-05-11T11:42:51.676Z,6.90
2023-05-11T11:43:51.678Z,10.20
2023-05-11T11:44:51.655Z,7.40
2023-05-11T11:45:51.678Z,5.30
2023-05-11T11:46:51.726Z,5.90
2023-05-11T11:47:51.694Z,3.90
2023-05-11T11:48:54.323Z,4.90
2023-05-11T11:49:51.611Z,6.50
2023-05-11T11:50:51.595Z,7.70
2023-05-11T11:51:51.682Z,5.30
2023-05-11T11:52:51.591Z,4.80
2023-05-11T11:53:51.577Z,5.00
2023-05-11T11:54:51.550Z,5.30
2023-05-11T11:55:51.537Z,8.30
2023-05-11T11:56:51.525Z,10.00
2023-05-11T11:57:51.535Z,5.50
2023-05-11T11:58:51.509Z,6.00
2023-05-11T11:59:51.495Z,5.50
2023-05-11T12:00:51.489Z,7.80
2023-05-11T12:01:51.485Z,10.30
2023-05-11T12:02:51.519Z,10.50
2023-05-11T12:03:51.643Z,26.50
2023-05-11T12:04:51.480Z,23.20
2023-05-11T12:05:51.436Z,9.70
2023-05-11T12:06:51.439Z,8.50
2023-05-11T12:07:51.464Z,9.70
2023-05-11T12:08:51.401Z,16.20
2023-05-11T12:09:51.411Z,17.70
2023-05-11T12:10:51.376Z,28.70
2023-05-11T12:11:51.402Z,23.80
2023-05-11T12:12:51.387Z,12.60
2023-05-11T12:13:51.347Z,18.80
2023-05-11T12:14:51.343Z,29.80
2023-05-11T12:15:51.340Z,25.50
2023-05-11T12:16:51.405Z,41.60
2023-05-11T12:17:51.347Z,50.00
2023-05-11T12:18:51.323Z,24.30
2023-05-11T12:19:51.294Z,24.20
2023-05-11T12:20:51.295Z,27.90
2023-05-11T12:21:51.274Z,36.20
2023-05-11T12:22:51.268Z,13.80
2023-05-11T12:23:51.240Z,5.90
2023-05-11T12:24:51.255Z,7.90
2023-05-11T12:25:51.243Z,4.90
2023-05-11T12:26:51.222Z,5.10
2023-05-11T12:27:51.232Z,5.20
2023-05-11T12:28:51.205Z,6.30
2023-05-11T12:29:51.207Z,5.90
2023-05-11T12:30:51.197Z,6.70
2023-05-11T12:31:51.233Z,8.40
2023-05-11T12:32:56.559Z,8.00
2023-05-11T12:33:52.145Z,9.10
2023-05-11T12:34:51.162Z,9.40
2023-05-11T12:35:51.138Z,10.90
2023-05-11T12:36:51.115Z,9.00
2023-05-11T12:37:51.109Z,10.40
2023-05-11T12:38:51.107Z,9.50
2023-05-11T12:39:51.153Z,6.00
2023-05-11T12:40:51.077Z,7.00
2023-05-11T12:41:51.067Z,7.90
2023-05-11T12:42:51.064Z,12.30
2023-05-11T12:43:51.053Z,6.70
2023-05-11T12:44:51.054Z,6.00
2023-05-11T12:45:51.057Z,5.70
2023-05-11T12:46:51.019Z,8.20
2023-05-11T12:47:51.102Z,8.60
2023-05-11T12:48:51.047Z,9.30
2023-05-11T12:49:50.997Z,12.60
2023-05-11T12:50:50.983Z,9.60
2023-05-11T12:51:50.971Z,10.90
2023-05-11T12:52:51.006Z,10.00
2023-05-11T12:53:50.962Z,10.30
2023-05-11T12:54:50.941Z,12.80
2023-05-11T12:55:50.926Z,12.70
2023-05-11T12:56:50.920Z,12.60